createdAt,value
2016-12-28T00:00:54.755Z,1013.27
2016-12-28T00:02:05.094Z,1013.37
2016-12-28T00:03:15.428Z,1013.35
2016-12-28T00:04:25.442Z,1013.28
2016-12-28T00:05:35.480Z,1013.26
2016-12-28T00:06:45.494Z,1013.21
2016-12-28T00:07:55.831Z,1013.27
2016-12-28T00:09:05.856Z,1013.26
2016-12-28T00:10:15.891Z,1013.3
2016-12-28T00:11:25.587Z,1013.37
2016-12-28T00:12:35.289Z,1013.31
2016-12-28T00:13:44.694Z,1013.33
2016-12-28T00:14:54.721Z,1013.38
2016-12-28T00:16:04.453Z,1013.38
2016-12-28T00:17:14.478Z,1013.38
2016-12-28T00:18:24.496Z,1013.35
2016-12-28T00:19:34.517Z,1013.36
2016-12-28T00:20:44.864Z,1013.25
2016-12-28T00:21:54.587Z,1013.33
2016-12-28T00:23:04.613Z,1013.23
2016-12-28T00:24:14.630Z,1013.28
2016-12-28T00:25:24.035Z,1013.35
2016-12-28T00:26:33.750Z,1013.23
2016-12-28T00:27:43.459Z,1013.19
2016-12-28T00:28:53.481Z,1013.32
2016-12-28T00:30:03.500Z,1013.34
2016-12-28T00:31:13.517Z,1013.39
2016-12-28T00:32:23.861Z,1013.42
2016-12-28T00:33:33.865Z,1013.52
2016-12-28T00:34:43.270Z,1013.5
2016-12-28T00:35:52.981Z,1013.56
2016-12-28T00:37:03.318Z,1013.66
2016-12-28T00:38:13.035Z,1013.58
2016-12-28T00:39:23.046Z,1013.61
2016-12-28T00:40:33.064Z,1013.57
2016-12-28T00:41:42.470Z,1013.48
2016-12-28T00:42:52.177Z,1013.42
2016-12-28T00:44:01.880Z,1013.47
2016-12-28T00:45:11.920Z,1013.46
2016-12-28T00:46:22.251Z,1013.48
2016-12-28T00:47:32.265Z,1013.48
2016-12-28T00:48:42.279Z,1013.51
2016-12-28T00:49:52.317Z,1013.49
2016-12-28T00:51:02.638Z,1013.45
2016-12-28T00:52:12.650Z,1013.48
2016-12-28T00:53:22.972Z,1013.47
2016-12-28T00:54:32.989Z,1013.45
2016-12-28T00:55:43.045Z,1013.54
2016-12-28T00:56:53.379Z,1013.55
2016-12-28T00:58:03.398Z,1013.54
2016-12-28T00:59:13.408Z,1013.51
2016-12-28T01:00:23.752Z,1013.47
2016-12-28T01:01:33.446Z,1013.49
2016-12-28T01:02:43.468Z,1013.44
2016-12-28T01:03:53.798Z,1013.49
2016-12-28T01:05:04.129Z,1013.38
2016-12-28T01:06:13.841Z,1013.39
2016-12-28T01:07:23.596Z,1013.46
2016-12-28T01:08:33.631Z,1013.4
2016-12-28T01:09:43.964Z,1013.51
2016-12-28T01:10:53.666Z,1013.42
2016-12-28T01:12:03.983Z,1013.41
2016-12-28T01:13:14.005Z,1013.46
2016-12-28T01:14:24.044Z,1013.48
2016-12-28T01:15:34.415Z,1013.45
2016-12-28T01:16:44.791Z,1013.37
2016-12-28T01:17:54.522Z,1013.32
2016-12-28T01:19:04.851Z,1013.42
2016-12-28T01:20:15.180Z,1013.38
2016-12-28T01:21:25.185Z,1013.4
2016-12-28T01:22:35.214Z,1013.22
2016-12-28T01:23:45.596Z,1013.28
2016-12-28T01:24:55.944Z,1013.31
2016-12-28T01:26:06.260Z,1013.19
2016-12-28T01:27:16.592Z,1013.19
2016-12-28T01:28:26.612Z,1013.15
2016-12-28T01:29:36.959Z,1013.16
2016-12-28T01:30:47.293Z,1013.08
2016-12-28T01:31:57.005Z,1013.23
2016-12-28T01:33:07.027Z,1013.23
2016-12-28T01:34:17.042Z,1013.2
2016-12-28T01:35:26.774Z,1013.2
2016-12-28T01:36:37.097Z,1013.15
2016-12-28T01:37:47.130Z,1013.09
2016-12-28T01:38:57.450Z,1013.11
2016-12-28T01:40:07.784Z,1013.13
2016-12-28T01:41:17.806Z,1013.1
2016-12-28T01:42:27.820Z,1013.18
2016-12-28T01:43:38.175Z,1013.13
2016-12-28T01:44:47.887Z,1013.17
2016-12-28T01:45:58.217Z,1013
2016-12-28T01:47:08.234Z,1012.91
2016-12-28T01:48:18.562Z,1012.94
2016-12-28T01:49:28.586Z,1013.01
2016-12-28T01:50:39.144Z,1013.04
2016-12-28T01:51:49.463Z,1013.05
2016-12-28T01:52:59.473Z,1013.05
2016-12-28T01:54:09.489Z,1013
2016-12-28T01:55:19.827Z,1012.96
2016-12-28T01:56:29.549Z,1013.07
2016-12-28T01:57:38.941Z,1013.08
2016-12-28T01:58:48.976Z,1013.08
2016-12-28T01:59:58.998Z,1012.97
2016-12-28T02:01:08.707Z,1013
2016-12-28T02:02:19.043Z,1012.94
2016-12-28T02:03:29.354Z,1012.86
2016-12-28T02:04:39.375Z,1012.95
2016-12-28T02:05:49.706Z,1012.91
2016-12-28T02:07:00.028Z,1012.89
2016-12-28T02:08:10.364Z,1012.86
2016-12-28T02:09:20.377Z,1012.79
2016-12-28T02:10:30.410Z,1012.89
2016-12-28T02:11:40.729Z,1012.86
2016-12-28T02:12:50.772Z,1012.87
2016-12-28T02:14:01.102Z,1012.77
2016-12-28T02:15:11.129Z,1012.75
2016-12-28T02:16:21.454Z,1012.75
2016-12-28T02:17:31.496Z,1012.74
2016-12-28T02:18:41.509Z,1012.71
2016-12-28T02:19:51.225Z,1012.71
2016-12-28T02:21:01.328Z,1012.68
2016-12-28T02:22:11.374Z,1012.66
2016-12-28T02:23:21.389Z,1012.7
2016-12-28T02:24:31.755Z,1012.68
2016-12-28T02:25:42.092Z,1012.65
2016-12-28T02:26:52.107Z,1012.68
2016-12-28T02:28:01.829Z,1012.7
2016-12-28T02:29:11.897Z,1012.63
2016-12-28T02:30:22.245Z,1012.65
2016-12-28T02:31:32.269Z,1012.6
2016-12-28T02:32:42.591Z,1012.66
2016-12-28T02:33:52.919Z,1012.56
2016-12-28T02:35:03.246Z,1012.56
2016-12-28T02:36:12.972Z,1012.59
2016-12-28T02:37:22.982Z,1012.62
2016-12-28T02:38:32.994Z,1012.56
2016-12-28T02:39:42.698Z,1012.56
2016-12-28T02:40:52.732Z,1012.66
2016-12-28T02:42:03.055Z,1012.65
2016-12-28T02:43:12.464Z,1012.72
2016-12-28T02:44:22.479Z,1012.63
2016-12-28T02:45:32.794Z,1012.56
2016-12-28T02:46:43.109Z,1012.53
2016-12-28T02:47:52.221Z,1012.48
2016-12-28T02:49:01.606Z,1012.46
2016-12-28T02:50:11.945Z,1012.52
2016-12-28T02:51:21.666Z,1012.5
2016-12-28T02:52:31.997Z,1012.51
2016-12-28T02:53:42.316Z,1012.56
2016-12-28T02:54:52.015Z,1012.56
2016-12-28T02:56:02.041Z,1012.5
2016-12-28T02:57:12.078Z,1012.46
2016-12-28T02:58:22.095Z,1012.48
2016-12-28T02:59:32.111Z,1012.39
2016-12-28T03:00:42.448Z,1012.43
2016-12-28T03:32:45.887Z,1012.56
2016-12-28T03:33:56.197Z,1012.59
2016-12-28T03:35:05.931Z,1012.64
2016-12-28T03:36:16.477Z,1012.69
2016-12-28T03:37:26.811Z,1012.76
2016-12-28T03:38:36.843Z,1012.73
2016-12-28T03:39:46.864Z,1012.75
2016-12-28T03:40:56.871Z,1012.78
2016-12-28T03:42:07.197Z,1012.73
2016-12-28T03:43:17.530Z,1012.75
2016-12-28T03:44:27.861Z,1012.78
2016-12-28T03:45:38.177Z,1012.84
2016-12-28T03:46:48.205Z,1012.8
2016-12-28T03:47:58.217Z,1012.81
2016-12-28T03:49:08.546Z,1012.84
2016-12-28T03:50:17.934Z,1012.86
2016-12-28T03:51:28.275Z,1012.86
2016-12-28T03:52:38.297Z,1012.83
2016-12-28T03:53:48.626Z,1012.81
2016-12-28T03:54:58.965Z,1012.83
2016-12-28T03:56:09.297Z,1012.75
2016-12-28T03:57:19.304Z,1012.73
2016-12-28T03:58:29.626Z,1012.78
2016-12-28T03:59:39.338Z,1012.77
2016-12-28T04:00:48.420Z,1012.81
2016-12-28T04:01:58.133Z,1012.81
2016-12-28T04:03:08.133Z,1012.78
2016-12-28T04:04:17.835Z,1012.88
2016-12-28T04:05:28.144Z,1012.86
2016-12-28T04:06:38.458Z,1012.88
2016-12-28T04:07:48.800Z,1012.9
2016-12-28T04:08:58.817Z,1012.9
2016-12-28T04:10:08.831Z,1012.92
2016-12-28T04:11:19.168Z,1012.93
2016-12-28T04:12:29.177Z,1012.96
2016-12-28T04:13:39.197Z,1012.96
2016-12-28T04:14:49.531Z,1012.98
2016-12-28T04:15:59.244Z,1012.99
2016-12-28T04:17:09.581Z,1013.04
2016-12-28T04:18:19.907Z,1013.05
2016-12-28T04:19:29.912Z,1013.08
2016-12-28T04:20:39.919Z,1013.1
2016-12-28T04:21:49.929Z,1013.08
2016-12-28T04:22:59.985Z,1013.07
2016-12-28T04:24:09.683Z,1013.02
2016-12-28T04:25:20.015Z,1013.02
2016-12-28T04:26:30.055Z,1013.06
2016-12-28T04:27:40.072Z,1013.06
2016-12-28T04:28:50.083Z,1013
2016-12-28T04:30:00.407Z,1013
2016-12-28T04:31:10.108Z,1012.96
2016-12-28T04:32:20.138Z,1013.02
2016-12-28T04:33:30.472Z,1013
2016-12-28T04:34:40.799Z,1012.98
2016-12-28T04:35:50.819Z,1013.13
2016-12-28T04:37:00.847Z,1013.11
2016-12-28T04:38:11.184Z,1013.14
2016-12-28T04:39:21.204Z,1013.16
2016-12-28T04:40:31.517Z,1013.13
2016-12-28T04:41:40.292Z,1013.15
2016-12-28T04:42:50.621Z,1013.21
2016-12-28T04:44:00.636Z,1013.24
2016-12-28T04:45:10.959Z,1013.25
2016-12-28T04:46:21.286Z,1013.27
2016-12-28T04:47:31.601Z,1013.23
2016-12-28T04:48:41.619Z,1013.28
2016-12-28T04:49:51.947Z,1013.25
2016-12-28T04:51:02.276Z,1013.24
2016-12-28T04:52:12.288Z,1013.25
2016-12-28T04:53:22.604Z,1013.21
2016-12-28T04:54:32.318Z,1013.24
2016-12-28T04:55:42.338Z,1013.29
2016-12-28T04:56:52.660Z,1013.26
2016-12-28T04:58:02.367Z,1013.24
2016-12-28T04:59:12.733Z,1013.29
2016-12-28T05:00:23.067Z,1013.23
2016-12-28T05:01:33.397Z,1013.23
2016-12-28T05:02:43.756Z,1013.23
2016-12-28T05:03:53.787Z,1013.24
2016-12-28T05:05:03.811Z,1013.24
2016-12-28T05:06:13.808Z,1013.27
2016-12-28T05:07:24.127Z,1013.24
2016-12-28T05:08:34.458Z,1013.34
2016-12-28T05:09:44.509Z,1013.34
2016-12-28T05:10:54.210Z,1013.38
2016-12-28T05:12:04.236Z,1013.38
2016-12-28T05:13:14.574Z,1013.41
2016-12-28T05:14:24.590Z,1013.41
2016-12-28T05:15:34.907Z,1013.39
2016-12-28T05:16:45.165Z,1013.23
2016-12-28T05:17:55.188Z,1013.4
2016-12-28T05:19:05.189Z,1013.44
2016-12-28T05:20:15.227Z,1013.43
2016-12-28T05:21:25.552Z,1013.46
2016-12-28T05:22:35.561Z,1013.51
2016-12-28T05:23:45.576Z,1013.6
2016-12-28T05:24:55.909Z,1013.58
2016-12-28T05:26:05.924Z,1013.61
2016-12-28T05:27:15.969Z,1013.6
2016-12-28T05:28:26.305Z,1013.54
2016-12-28T05:29:36.656Z,1013.59
2016-12-28T05:30:46.676Z,1013.54
2016-12-28T05:31:57.005Z,1013.59
2016-12-28T05:33:07.364Z,1013.66
2016-12-28T05:34:17.695Z,1013.6
2016-12-28T05:35:28.016Z,1013.6
2016-12-28T05:36:37.708Z,1013.61
2016-12-28T05:37:48.060Z,1013.65
2016-12-28T05:38:58.381Z,1013.62
2016-12-28T05:40:08.393Z,1013.6
2016-12-28T05:41:18.400Z,1013.58
2016-12-28T05:42:28.732Z,1013.62
2016-12-28T05:43:38.775Z,1013.66
2016-12-28T05:44:48.799Z,1013.69
2016-12-28T05:45:59.119Z,1013.69
2016-12-28T05:47:09.140Z,1013.71
2016-12-28T05:48:18.847Z,1013.72
2016-12-28T05:49:29.185Z,1013.74
2016-12-28T05:50:39.207Z,1013.74
2016-12-28T05:51:49.524Z,1013.7
2016-12-28T05:52:59.842Z,1013.71
2016-12-28T05:54:10.167Z,1013.7
2016-12-28T05:55:20.184Z,1013.7
2016-12-28T05:56:30.541Z,1013.74
2016-12-28T05:57:40.559Z,1013.73
2016-12-28T05:58:50.887Z,1013.75
2016-12-28T06:00:01.218Z,1013.73
2016-12-28T06:01:11.530Z,1013.81
2016-12-28T06:02:21.541Z,1013.83
2016-12-28T06:03:31.900Z,1013.84
2016-12-28T06:04:41.616Z,1013.89
2016-12-28T06:05:51.621Z,1013.85
2016-12-28T06:07:01.640Z,1013.92
2016-12-28T06:08:11.657Z,1013.88
2016-12-28T06:09:21.665Z,1013.9
2016-12-28T06:10:31.671Z,1013.86
2016-12-28T06:11:41.995Z,1013.82
2016-12-28T06:12:52.345Z,1013.79
2016-12-28T06:14:02.680Z,1013.83
2016-12-28T06:15:12.694Z,1013.84
2016-12-28T06:16:22.396Z,1013.83
2016-12-28T06:17:32.397Z,1013.8
2016-12-28T06:18:42.096Z,1013.85
2016-12-28T06:19:52.418Z,1013.95
2016-12-28T06:21:02.439Z,1013.94
2016-12-28T06:22:12.455Z,1013.99
2016-12-28T06:23:22.776Z,1014
2016-12-28T06:24:32.794Z,1014.04
2016-12-28T06:25:43.122Z,1014.1
2016-12-28T06:26:53.141Z,1014.1
2016-12-28T06:28:03.450Z,1014.15
2016-12-28T06:29:13.455Z,1014.16
2016-12-28T06:30:23.486Z,1014.2
2016-12-28T06:31:33.830Z,1014.22
2016-12-28T06:32:43.566Z,1014.21
2016-12-28T06:33:53.599Z,1014.22
2016-12-28T06:35:03.297Z,1014.25
2016-12-28T06:36:13.315Z,1014.25
2016-12-28T06:37:23.049Z,1014.26
2016-12-28T06:38:32.755Z,1014.3
2016-12-28T06:39:43.093Z,1014.26
2016-12-28T06:40:53.125Z,1014.3
2016-12-28T06:42:03.159Z,1014.31
2016-12-28T06:43:12.846Z,1014.3
2016-12-28T06:44:22.857Z,1014.34
2016-12-28T06:45:32.901Z,1014.3
2016-12-28T06:46:43.233Z,1014.36
2016-12-28T06:47:53.554Z,1014.37
2016-12-28T06:49:03.256Z,1014.34
2016-12-28T06:50:12.956Z,1014.37
2016-12-28T06:51:22.969Z,1014.39
2016-12-28T06:52:32.669Z,1014.37
2016-12-28T06:53:42.999Z,1014.42
2016-12-28T06:54:53.015Z,1014.38
2016-12-28T06:56:03.346Z,1014.41
2016-12-28T06:57:13.693Z,1014.41
2016-12-28T06:58:24.065Z,1014.43
2016-12-28T06:59:34.410Z,1014.47
2016-12-28T07:00:44.117Z,1014.46
2016-12-28T07:01:54.449Z,1014.42
2016-12-28T07:03:04.150Z,1014.4
2016-12-28T07:04:14.493Z,1014.42
2016-12-28T07:05:24.512Z,1014.45
2016-12-28T07:06:34.527Z,1014.43
2016-12-28T07:07:44.842Z,1014.55
2016-12-28T07:08:55.166Z,1014.6
2016-12-28T07:10:05.192Z,1014.63
2016-12-28T07:11:15.206Z,1014.54
2016-12-28T07:12:25.219Z,1014.56
2016-12-28T07:13:34.915Z,1014.64
2016-12-28T07:14:44.621Z,1014.68
2016-12-28T07:15:54.943Z,1014.63
2016-12-28T07:17:04.947Z,1014.66
2016-12-28T07:18:14.984Z,1014.71
2016-12-28T07:19:24.699Z,1014.74
2016-12-28T07:20:34.401Z,1014.77
2016-12-28T07:21:44.409Z,1014.82
2016-12-28T07:22:54.418Z,1014.79
2016-12-28T07:24:04.125Z,1014.78
2016-12-28T07:25:13.831Z,1014.84
2016-12-28T07:26:24.168Z,1014.87
2016-12-28T07:27:34.198Z,1014.89
2016-12-28T07:28:44.207Z,1014.93
2016-12-28T07:29:54.250Z,1014.85
2016-12-28T07:31:04.287Z,1014.84
2016-12-28T07:32:14.311Z,1014.85
2016-12-28T07:33:24.665Z,1014.89
2016-12-28T07:34:34.990Z,1014.93
2016-12-28T07:35:45.336Z,1014.93
2016-12-28T07:36:55.682Z,1014.87
2016-12-28T07:38:06.010Z,1014.83
2016-12-28T07:39:16.032Z,1014.81
2016-12-28T07:40:26.039Z,1014.87
2016-12-28T07:41:36.379Z,1014.96
2016-12-28T07:42:46.737Z,1014.9
2016-12-28T07:43:57.074Z,1015.01
2016-12-28T07:45:07.087Z,1015.02
2016-12-28T07:46:17.117Z,1014.97
2016-12-28T07:47:26.544Z,1014.99
2016-12-28T07:48:36.885Z,1015
2016-12-28T07:49:46.911Z,1015.02
2016-12-28T07:50:56.929Z,1015.03
2016-12-28T07:52:07.249Z,1015.04
2016-12-28T07:53:17.580Z,1015.06
2016-12-28T07:54:27.598Z,1015.15
2016-12-28T07:55:37.621Z,1015.14
2016-12-28T07:56:47.976Z,1015.11
2016-12-28T07:57:57.994Z,1015.14
2016-12-28T07:59:08.009Z,1015.11
2016-12-28T08:00:17.714Z,1015.1
2016-12-28T08:01:28.092Z,1015.1
2016-12-28T08:02:38.108Z,1015.1
2016-12-28T08:03:48.136Z,1015.02
2016-12-28T08:04:58.177Z,1015.05
2016-12-28T08:06:08.205Z,1015.11
2016-12-28T08:07:18.569Z,1015.13
2016-12-28T08:08:28.586Z,1015.15
2016-12-28T08:09:38.923Z,1015.1
2016-12-28T08:10:48.629Z,1015.05
2016-12-28T08:11:58.965Z,1015.13
2016-12-28T08:13:08.977Z,1015.13
2016-12-28T08:14:19.298Z,1015.17
2016-12-28T08:15:29.624Z,1015.12
2016-12-28T08:16:39.327Z,1015.14
2016-12-28T08:17:48.725Z,1015.06
2016-12-28T08:18:59.043Z,1015.05
2016-12-28T08:20:09.050Z,1015.09
2016-12-28T08:21:19.397Z,1015.09
2016-12-28T08:22:29.413Z,1015.07
2016-12-28T08:23:39.753Z,1015.07
2016-12-28T08:24:49.796Z,1015.04
2016-12-28T08:26:00.133Z,1015.1
2016-12-28T08:27:10.139Z,1015.13
2016-12-28T08:28:20.471Z,1015.1
2016-12-28T08:29:30.507Z,1015.16
2016-12-28T08:30:40.844Z,1015.19
2016-12-28T08:31:50.871Z,1015.24
2016-12-28T08:33:01.207Z,1015.28
2016-12-28T08:34:11.216Z,1015.33
2016-12-28T08:35:21.538Z,1015.33
2016-12-28T08:36:31.246Z,1015.29
2016-12-28T08:37:41.572Z,1015.36
2016-12-28T08:38:51.913Z,1015.4
2016-12-28T08:40:01.604Z,1015.4
2016-12-28T08:41:11.976Z,1015.44
2016-12-28T08:42:21.698Z,1015.43
2016-12-28T08:43:31.714Z,1015.41
2016-12-28T08:44:41.456Z,1015.45
2016-12-28T08:45:51.474Z,1015.44
2016-12-28T08:47:01.520Z,1015.43
2016-12-28T08:48:11.570Z,1015.41
2016-12-28T08:49:21.582Z,1015.5
2016-12-28T08:50:31.608Z,1015.51
2016-12-28T08:51:41.653Z,1015.55
2016-12-28T08:52:52.011Z,1015.53
2016-12-28T08:54:02.023Z,1015.58
2016-12-28T08:55:12.035Z,1015.62
2016-12-28T08:56:22.365Z,1015.66
2016-12-28T08:57:32.693Z,1015.64
2016-12-28T08:58:42.710Z,1015.63
2016-12-28T08:59:52.724Z,1015.6
2016-12-28T09:01:02.436Z,1015.54
2016-12-28T09:02:12.479Z,1015.53
2016-12-28T09:03:22.195Z,1015.52
2016-12-28T09:04:31.904Z,1015.54
2016-12-28T09:05:41.911Z,1015.5
2016-12-28T09:06:52.253Z,1015.55
2016-12-28T09:08:02.579Z,1015.55
2016-12-28T09:09:12.918Z,1015.53
2016-12-28T09:10:23.247Z,1015.61
2016-12-28T09:11:33.298Z,1015.59
2016-12-28T09:12:42.710Z,1015.59
2016-12-28T09:13:53.041Z,1015.61
2016-12-28T09:15:03.058Z,1015.65
2016-12-28T09:16:13.084Z,1015.64
2016-12-28T09:17:23.117Z,1015.7
2016-12-28T09:18:32.817Z,1015.72
2016-12-28T09:19:42.518Z,1015.73
2016-12-28T09:20:52.860Z,1015.77
2016-12-28T09:22:03.188Z,1015.87
2016-12-28T09:23:13.536Z,1015.77
2016-12-28T09:24:22.944Z,1015.78
2016-12-28T09:25:33.281Z,1015.77
2016-12-28T09:26:43.593Z,1015.77
2016-12-28T09:27:53.601Z,1015.83
2016-12-28T09:29:03.921Z,1015.77
2016-12-28T09:30:13.626Z,1015.77
2016-12-28T09:31:23.328Z,1015.79
2016-12-28T09:32:33.363Z,1015.75
2016-12-28T09:33:43.377Z,1015.8
2016-12-28T09:34:52.473Z,1015.79
2016-12-28T09:36:02.799Z,1015.73
2016-12-28T09:37:13.131Z,1015.74
2016-12-28T09:38:23.186Z,1015.71
2016-12-28T09:39:33.504Z,1015.71
2016-12-28T09:40:43.840Z,1015.74
2016-12-28T09:41:54.162Z,1015.67
2016-12-28T09:43:03.870Z,1015.74
2016-12-28T09:44:13.626Z,1015.76
2016-12-28T09:45:23.646Z,1015.79
2016-12-28T09:46:33.983Z,1015.75
2016-12-28T09:47:44.331Z,1015.73
2016-12-28T09:48:54.351Z,1015.73
2016-12-28T09:50:04.689Z,1015.69
2016-12-28T09:51:14.427Z,1015.73
2016-12-28T09:52:24.460Z,1015.66
2016-12-28T09:53:33.889Z,1015.73
2016-12-28T09:54:43.309Z,1015.77
2016-12-28T09:55:53.646Z,1015.7
2016-12-28T09:57:03.363Z,1015.76
2016-12-28T09:58:13.392Z,1015.66
2016-12-28T09:59:23.736Z,1015.63
2016-12-28T10:00:34.058Z,1015.69
2016-12-28T10:01:44.380Z,1015.7
2016-12-28T10:02:54.101Z,1015.7
2016-12-28T10:04:03.817Z,1015.71
2016-12-28T10:05:14.150Z,1015.69
2016-12-28T10:06:24.180Z,1015.63
2016-12-28T10:07:34.515Z,1015.62
2016-12-28T10:08:44.541Z,1015.57
2016-12-28T10:09:54.257Z,1015.62
2016-12-28T10:11:04.284Z,1015.64
2016-12-28T10:12:14.615Z,1015.62
2016-12-28T10:13:24.638Z,1015.63
2016-12-28T10:14:34.023Z,1015.57
2016-12-28T10:15:44.364Z,1015.6
2016-12-28T10:16:54.719Z,1015.59
2016-12-28T10:18:04.738Z,1015.58
2016-12-28T10:19:14.772Z,1015.48
2016-12-28T10:20:24.802Z,1015.48
2016-12-28T10:21:34.828Z,1015.51
2016-12-28T10:22:45.167Z,1015.42
2016-12-28T10:23:54.879Z,1015.45
2016-12-28T10:25:04.894Z,1015.43
2016-12-28T10:26:14.936Z,1015.52
2016-12-28T10:27:24.655Z,1015.36
2016-12-28T10:28:34.987Z,1015.42
2016-12-28T10:29:45.312Z,1015.46
2016-12-28T10:30:55.325Z,1015.44
2016-12-28T10:32:05.351Z,1015.44
2016-12-28T10:33:15.708Z,1015.39
2016-12-28T10:34:25.411Z,1015.42
2016-12-28T10:35:35.770Z,1015.4
2016-12-28T10:36:45.792Z,1015.33
2016-12-28T10:37:56.134Z,1015.34
2016-12-28T10:39:05.860Z,1015.38
2016-12-28T10:40:15.877Z,1015.36
2016-12-28T10:41:25.966Z,1015.37
2016-12-28T10:42:37.319Z,1015.34
2016-12-28T10:43:47.712Z,1015.29
2016-12-28T10:44:58.009Z,1015.22
2016-12-28T10:46:07.780Z,1015.24
2016-12-28T10:47:17.711Z,1015.28
2016-12-28T10:48:28.980Z,1015.29
2016-12-28T10:49:39.282Z,1015.22
2016-12-28T10:50:49.613Z,1015.16
2016-12-28T10:51:59.621Z,1015.17
2016-12-28T10:53:10.285Z,1015.2
2016-12-28T10:54:21.143Z,1015.18
2016-12-28T10:55:32.059Z,1015.15
2016-12-28T10:56:42.407Z,1015.16
2016-12-28T10:57:52.440Z,1015.13
2016-12-28T10:59:02.768Z,1015.21
2016-12-28T11:00:12.465Z,1015.22
2016-12-28T11:01:22.561Z,1015.24
2016-12-28T11:02:33.360Z,1015.44
2016-12-28T11:03:43.248Z,1015.26
2016-12-28T11:04:53.583Z,1015.26
2016-12-28T11:06:04.186Z,1015.29
2016-12-28T11:07:14.200Z,1015.29
2016-12-28T11:08:24.646Z,1015.26
2016-12-28T11:09:34.401Z,1015.26
2016-12-28T11:10:44.105Z,1015.33
2016-12-28T11:11:54.742Z,1015.19
2016-12-28T11:13:04.964Z,1015.16
2016-12-28T11:14:15.153Z,1015.2
2016-12-28T11:15:25.277Z,1015.15
2016-12-28T11:16:35.651Z,1015.12
2016-12-28T11:17:47.796Z,1015.08
2016-12-28T11:18:58.050Z,1015.32
2016-12-28T11:20:10.884Z,1015.1
2016-12-28T11:21:23.817Z,1015.11
2016-12-28T11:22:36.297Z,1015.04
2016-12-28T11:23:46.602Z,1015.01
2016-12-28T11:24:57.742Z,1014.96
2016-12-28T11:26:11.299Z,1014.92
2016-12-28T11:27:24.298Z,1015.01
2016-12-28T11:28:36.345Z,1014.93
2016-12-28T11:29:46.509Z,1014.99
2016-12-28T11:30:57.403Z,1014.96
2016-12-28T11:32:07.919Z,1014.98
2016-12-28T11:33:17.797Z,1015
2016-12-28T11:34:28.321Z,1015
2016-12-28T11:35:39.632Z,1015.05
2016-12-28T11:36:50.029Z,1014.95
2016-12-28T11:38:00.351Z,1015.05
2016-12-28T11:39:10.387Z,1015
2016-12-28T11:40:20.810Z,1015.09
2016-12-28T11:41:30.923Z,1015.07
2016-12-28T11:42:41.254Z,1015.09
2016-12-28T11:43:50.036Z,1015.07
2016-12-28T11:45:00.052Z,1015.22
2016-12-28T11:46:10.371Z,1015.15
2016-12-28T11:47:19.767Z,1015.08
2016-12-28T11:48:30.101Z,1015.04
2016-12-28T11:49:39.496Z,1015.15
2016-12-28T11:50:49.515Z,1015.05
2016-12-28T11:51:59.063Z,1015.08
2016-12-28T11:53:09.397Z,1015.11
2016-12-28T11:54:20.117Z,1015.06
2016-12-28T11:55:31.489Z,1014.99
2016-12-28T11:56:41.453Z,1014.99
2016-12-28T11:57:52.400Z,1014.99
2016-12-28T11:59:02.948Z,1015.03
2016-12-28T12:00:14.090Z,1014.97
2016-12-28T12:01:24.385Z,1014.93
2016-12-28T12:02:34.675Z,1014.98
2016-12-28T12:03:45.709Z,1014.98
2016-12-28T12:04:56.467Z,1014.92
2016-12-28T12:06:06.673Z,1014.92
2016-12-28T12:07:16.630Z,1014.89
2016-12-28T12:08:27.655Z,1014.88
2016-12-28T12:09:38.818Z,1014.89
2016-12-28T12:10:49.580Z,1014.83
2016-12-28T12:12:01.097Z,1014.78
2016-12-28T12:13:11.661Z,1014.84
2016-12-28T12:14:22.033Z,1014.92
2016-12-28T12:15:32.671Z,1014.86
2016-12-28T12:16:43.899Z,1014.89
2016-12-28T12:17:55.501Z,1014.94
2016-12-28T12:19:06.134Z,1014.79
2016-12-28T12:20:16.866Z,1014.77
2016-12-28T12:21:28.752Z,1014.79
2016-12-28T12:22:39.224Z,1014.71
2016-12-28T12:23:52.977Z,1014.78
2016-12-28T12:25:03.747Z,1014.78
2016-12-28T12:26:14.124Z,1014.72
2016-12-28T12:27:24.462Z,1014.74
2016-12-28T12:28:34.852Z,1014.77
2016-12-28T12:29:45.616Z,1014.68
2016-12-28T12:30:56.361Z,1014.74
2016-12-28T12:32:07.112Z,1014.8
2016-12-28T12:33:17.074Z,1014.72
2016-12-28T12:34:27.818Z,1014.73
2016-12-28T12:35:38.566Z,1014.7
2016-12-28T12:36:48.921Z,1014.67
2016-12-28T12:37:59.658Z,1014.79
2016-12-28T12:39:10.414Z,1014.76
2016-12-28T12:40:20.372Z,1014.59
2016-12-28T12:41:30.324Z,1014.75
2016-12-28T12:42:41.070Z,1014.78
2016-12-28T12:43:51.840Z,1014.82
2016-12-28T12:45:02.225Z,1014.71
2016-12-28T12:46:12.212Z,1014.67
2016-12-28T12:47:22.995Z,1014.73
2016-12-28T12:48:33.341Z,1014.78
2016-12-28T12:49:44.082Z,1014.77
2016-12-28T12:50:54.828Z,1014.74
2016-12-28T12:52:04.776Z,1014.74
2016-12-28T12:53:14.733Z,1014.78
2016-12-28T12:54:25.505Z,1014.73
2016-12-28T12:55:36.271Z,1014.75
2016-12-28T12:56:46.239Z,1014.76
2016-12-28T12:57:56.607Z,1014.73
2016-12-28T12:59:07.363Z,1014.83
2016-12-28T13:00:17.326Z,1014.7
2016-12-28T13:01:28.084Z,1014.73
2016-12-28T13:02:38.034Z,1014.75
2016-12-28T13:03:48.786Z,1014.72
2016-12-28T13:04:59.189Z,1014.68
2016-12-28T13:06:09.554Z,1014.65
2016-12-28T13:07:19.910Z,1014.71
2016-12-28T13:08:30.666Z,1014.7
2016-12-28T13:09:41.024Z,1014.64
2016-12-28T13:10:51.004Z,1014.61
2016-12-28T13:12:00.968Z,1014.56
2016-12-28T13:13:11.734Z,1014.59
2016-12-28T13:14:22.493Z,1014.56
2016-12-28T13:15:33.257Z,1014.68
2016-12-28T13:16:43.254Z,1014.67
2016-12-28T13:17:53.606Z,1014.67
2016-12-28T13:19:03.970Z,1014.68
2016-12-28T13:20:14.729Z,1014.68
2016-12-28T13:21:24.695Z,1014.69
2016-12-28T13:22:35.074Z,1014.61
2016-12-28T13:23:45.428Z,1014.64
2016-12-28T13:24:55.372Z,1014.7
2016-12-28T13:26:06.108Z,1014.7
2016-12-28T13:27:16.850Z,1014.74
2016-12-28T13:28:27.610Z,1014.76
2016-12-28T13:29:37.954Z,1014.71
2016-12-28T13:30:48.304Z,1014.79
2016-12-28T13:31:58.665Z,1014.81
2016-12-28T13:33:09.019Z,1014.82
2016-12-28T13:34:19.381Z,1014.86
2016-12-28T13:35:30.157Z,1014.88
2016-12-28T13:36:40.503Z,1014.92
2016-12-28T13:37:51.261Z,1014.93
2016-12-28T13:39:01.641Z,1014.96
2016-12-28T13:40:12.018Z,1015.03
2016-12-28T13:41:22.370Z,1015.05
2016-12-28T13:42:33.122Z,1015.05
2016-12-28T13:43:43.884Z,1015.13
2016-12-28T13:44:53.861Z,1015.1
2016-12-28T13:46:04.212Z,1015.09
2016-12-28T13:47:14.568Z,1015.06
2016-12-28T13:48:25.334Z,1015.19
2016-12-28T13:49:35.298Z,1015.09
2016-12-28T13:50:45.663Z,1015.12
2016-12-28T13:51:55.630Z,1015.14
2016-12-28T13:53:05.968Z,1015.23
2016-12-28T13:54:15.935Z,1015.21
2016-12-28T13:55:26.685Z,1015.3
2016-12-28T13:56:37.421Z,1015.23
2016-12-28T13:57:48.180Z,1015.23
2016-12-28T13:58:58.923Z,1015.24
2016-12-28T14:00:09.281Z,1015.24
2016-12-28T14:01:20.039Z,1015.29
2016-12-28T14:02:30.794Z,1015.2
2016-12-28T14:03:41.151Z,1015.16
2016-12-28T14:04:51.879Z,1015.24
2016-12-28T14:06:01.494Z,1015.23
2016-12-28T14:07:11.450Z,1015.26
2016-12-28T14:08:22.210Z,1015.17
2016-12-28T14:09:32.972Z,1015.27
2016-12-28T14:10:43.324Z,1015.18
2016-12-28T14:11:54.065Z,1015.18
2016-12-28T14:13:04.425Z,1015.15
2016-12-28T14:14:14.010Z,1015.17
2016-12-28T14:15:24.742Z,1015.15
2016-12-28T14:16:35.100Z,1015.19
2016-12-28T14:17:45.863Z,1015.19
2016-12-28T14:18:56.628Z,1015.2
2016-12-28T14:20:07.392Z,1015.2
2016-12-28T14:21:18.144Z,1015.17
2016-12-28T14:22:28.505Z,1015.21
2016-12-28T14:23:38.859Z,1015.22
2016-12-28T14:24:49.600Z,1015.23
2016-12-28T14:25:59.962Z,1015.23
2016-12-28T14:27:10.708Z,1015.3
2016-12-28T14:28:21.466Z,1015.2
2016-12-28T14:29:32.233Z,1015.2
2016-12-28T14:30:42.998Z,1015.18
2016-12-28T14:31:53.350Z,1015.16
2016-12-28T14:33:04.106Z,1015.21
2016-12-28T14:34:14.463Z,1015.21
2016-12-28T14:35:24.415Z,1015.17
2016-12-28T14:36:35.161Z,1015.25
2016-12-28T14:37:45.543Z,1015.3
2016-12-28T14:38:55.919Z,1015.33
2016-12-28T14:40:06.267Z,1015.37
2016-12-28T14:41:17.071Z,1015.36
2016-12-28T14:42:27.430Z,1015.42
2016-12-28T14:43:38.176Z,1015.43
2016-12-28T14:44:48.952Z,1015.47